sensor_id;sensor_type;location;lat;lon;timestamp;temperature;humidity
44729;DHT22;30457;53.590;9.922;2023-05-07T00:01:27;13.40;56.80
44729;DHT22;30457;53.590;9.922;2023-05-07T00:05:52;13.40;56.90
44729;DHT22;30457;53.590;9.922;2023-05-07T00:10:21;13.40;56.90
44729;DHT22;30457;53.590;9.922;2023-05-07T00:14:46;13.40;56.90
44729;DHT22;30457;53.590;9.922;2023-05-07T00:19:12;13.40;56.90
44729;DHT22;30457;53.590;9.922;2023-05-07T00:23:37;13.40;56.90
44729;DHT22;30457;53.590;9.922;2023-05-07T00:28:03;13.40;56.90
44729;DHT22;30457;53.590;9.922;2023-05-07T00:32:29;13.40;56.90
44729;DHT22;30457;53.590;9.922;2023-05-07T00:36:54;13.40;56.90
44729;DHT22;30457;53.590;9.922;2023-05-07T00:41:20;13.40;57.00
44729;DHT22;30457;53.590;9.922;2023-05-07T00:45:45;13.40;57.00
44729;DHT22;30457;53.590;9.922;2023-05-07T00:50:11;13.40;57.00
44729;DHT22;30457;53.590;9.922;2023-05-07T00:54:38;13.40;56.90
44729;DHT22;30457;53.590;9.922;2023-05-07T00:59:04;13.40;56.90
44729;DHT22;30457;53.590;9.922;2023-05-07T01:03:29;13.40;56.80
44729;DHT22;30457;53.590;9.922;2023-05-07T01:07:55;13.40;56.50
44729;DHT22;30457;53.590;9.922;2023-05-07T01:12:22;13.40;56.80
44729;DHT22;30457;53.590;9.922;2023-05-07T01:16:48;13.40;56.90
44729;DHT22;30457;53.590;9.922;2023-05-07T01:21:17;13.40;57.10
44729;DHT22;30457;53.590;9.922;2023-05-07T01:25:51;13.40;57.00
44729;DHT22;30457;53.590;9.922;2023-05-07T01:30:18;13.40;57.20
44729;DHT22;30457;53.590;9.922;2023-05-07T01:34:48;13.40;57.10
44729;DHT22;30457;53.590;9.922;2023-05-07T01:39:15;13.40;57.00
44729;DHT22;30457;53.590;9.922;2023-05-07T01:43:41;13.40;56.80
44729;DHT22;30457;53.590;9.922;2023-05-07T01:48:09;13.40;56.70
44729;DHT22;30457;53.590;9.922;2023-05-07T01:52:36;13.40;56.70
44729;DHT22;30457;53.590;9.922;2023-05-07T01:57:01;13.40;56.70
44729;DHT22;30457;53.590;9.922;2023-05-07T02:01:28;13.40;56.60
44729;DHT22;30457;53.590;9.922;2023-05-07T02:05:54;13.40;56.60
44729;DHT22;30457;53.590;9.922;2023-05-07T02:10:29;13.40;56.50
44729;DHT22;30457;53.590;9.922;2023-05-07T02:14:54;13.40;56.40
44729;DHT22;30457;53.590;9.922;2023-05-07T02:19:20;13.50;56.40
44729;DHT22;30457;53.590;9.922;2023-05-07T02:23:46;13.40;56.40
44729;DHT22;30457;53.590;9.922;2023-05-07T02:28:12;13.40;56.40
44729;DHT22;30457;53.590;9.922;2023-05-07T02:32:45;13.40;56.50
44729;DHT22;30457;53.590;9.922;2023-05-07T02:37:10;13.40;56.50
44729;DHT22;30457;53.590;9.922;2023-05-07T02:41:36;13.40;56.50
44729;DHT22;30457;53.590;9.922;2023-05-07T02:46:03;13.40;56.70
44729;DHT22;30457;53.590;9.922;2023-05-07T02:50:29;13.40;56.70
44729;DHT22;30457;53.590;9.922;2023-05-07T02:54:55;13.30;56.60
44729;DHT22;30457;53.590;9.922;2023-05-07T02:59:21;13.30;56.60
44729;DHT22;30457;53.590;9.922;2023-05-07T03:03:47;13.30;56.70
44729;DHT22;30457;53.590;9.922;2023-05-07T03:08:13;13.30;56.80
44729;DHT22;30457;53.590;9.922;2023-05-07T03:12:39;13.40;56.90
44729;DHT22;30457;53.590;9.922;2023-05-07T03:17:04;13.30;56.80
44729;DHT22;30457;53.590;9.922;2023-05-07T03:21:30;13.30;56.80
44729;DHT22;30457;53.590;9.922;2023-05-07T03:25:58;13.20;56.90
44729;DHT22;30457;53.590;9.922;2023-05-07T03:30:24;13.20;56.80
44729;DHT22;30457;53.590;9.922;2023-05-07T03:34:49;13.20;57.00
44729;DHT22;30457;53.590;9.922;2023-05-07T03:39:15;13.20;57.10
44729;DHT22;30457;53.590;9.922;2023-05-07T03:43:42;13.20;57.20
44729;DHT22;30457;53.590;9.922;2023-05-07T03:48:10;13.20;57.10
44729;DHT22;30457;53.590;9.922;2023-05-07T03:52:36;13.20;57.10
44729;DHT22;30457;53.590;9.922;2023-05-07T03:57:03;13.30;57.10
44729;DHT22;30457;53.590;9.922;2023-05-07T04:01:29;13.30;56.90
44729;DHT22;30457;53.590;9.922;2023-05-07T04:05:55;13.30;56.80
44729;DHT22;30457;53.590;9.922;2023-05-07T04:10:21;13.20;56.70
44729;DHT22;30457;53.590;9.922;2023-05-07T04:14:49;13.20;56.60
44729;DHT22;30457;53.590;9.922;2023-05-07T04:19:15;13.20;56.60
44729;DHT22;30457;53.590;9.922;2023-05-07T04:23:41;13.20;56.50
44729;DHT22;30457;53.590;9.922;2023-05-07T04:28:10;13.20;56.50
44729;DHT22;30457;53.590;9.922;2023-05-07T04:32:37;13.20;56.60
44729;DHT22;30457;53.590;9.922;2023-05-07T04:37:03;13.30;56.70
44729;DHT22;30457;53.590;9.922;2023-05-07T04:41:30;13.30;56.70
44729;DHT22;30457;53.590;9.922;2023-05-07T04:45:56;13.30;56.80
44729;DHT22;30457;53.590;9.922;2023-05-07T04:50:24;13.30;56.60
44729;DHT22;30457;53.590;9.922;2023-05-07T04:54:53;13.30;56.60
44729;DHT22;30457;53.590;9.922;2023-05-07T04:59:19;13.40;56.50
44729;DHT22;30457;53.590;9.922;2023-05-07T05:03:44;13.30;56.40
44729;DHT22;30457;53.590;9.922;2023-05-07T05:08:10;13.30;56.40
44729;DHT22;30457;53.590;9.922;2023-05-07T05:12:39;13.40;56.50
44729;DHT22;30457;53.590;9.922;2023-05-07T05:17:05;13.30;56.40
44729;DHT22;30457;53.590;9.922;2023-05-07T05:21:32;13.40;56.40
44729;DHT22;30457;53.590;9.922;2023-05-07T05:26:04;13.40;56.40
44729;DHT22;30457;53.590;9.922;2023-05-07T05:30:32;13.40;56.30
44729;DHT22;30457;53.590;9.922;2023-05-07T05:34:57;13.40;56.20
44729;DHT22;30457;53.590;9.922;2023-05-07T05:39:23;13.40;56.20
44729;DHT22;30457;53.590;9.922;2023-05-07T05:43:49;13.40;56.30
44729;DHT22;30457;53.590;9.922;2023-05-07T05:48:15;13.40;56.30
44729;DHT22;30457;53.590;9.922;2023-05-07T05:52:41;13.50;56.50
44729;DHT22;30457;53.590;9.922;2023-05-07T05:57:07;13.50;56.40
44729;DHT22;30457;53.590;9.922;2023-05-07T06:01:33;13.50;56.30
44729;DHT22;30457;53.590;9.922;2023-05-07T06:06:02;13.50;56.30
44729;DHT22;30457;53.590;9.922;2023-05-07T06:10:28;13.50;56.20
44729;DHT22;30457;53.590;9.922;2023-05-07T06:14:55;13.60;56.20
44729;DHT22;30457;53.590;9.922;2023-05-07T06:19:20;13.60;56.20
44729;DHT22;30457;53.590;9.922;2023-05-07T06:23:49;13.60;56.20
44729;DHT22;30457;53.590;9.922;2023-05-07T06:28:17;13.70;56.00
44729;DHT22;30457;53.590;9.922;2023-05-07T06:32:43;13.70;56.00
44729;DHT22;30457;53.590;9.922;2023-05-07T06:37:10;13.70;56.00
44729;DHT22;30457;53.590;9.922;2023-05-07T06:41:54;13.70;56.00
44729;DHT22;30457;53.590;9.922;2023-05-07T06:46:25;13.80;55.90
44729;DHT22;30457;53.590;9.922;2023-05-07T06:50:50;13.80;55.90
44729;DHT22;30457;53.590;9.922;2023-05-07T06:55:17;13.80;56.00
44729;DHT22;30457;53.590;9.922;2023-05-07T06:59:45;13.80;56.00
44729;DHT22;30457;53.590;9.922;2023-05-07T07:04:11;13.90;56.00
44729;DHT22;30457;53.590;9.922;2023-05-07T07:08:38;13.90;56.00
44729;DHT22;30457;53.590;9.922;2023-05-07T07:13:05;13.90;56.00
44729;DHT22;30457;53.590;9.922;2023-05-07T07:17:31;14.00;56.00
44729;DHT22;30457;53.590;9.922;2023-05-07T07:21:56;14.00;55.80
44729;DHT22;30457;53.590;9.922;2023-05-07T07:26:22;14.10;55.80
44729;DHT22;30457;53.590;9.922;2023-05-07T07:30:48;14.10;55.60
44729;DHT22;30457;53.590;9.922;2023-05-07T07:35:15;14.20;55.60
44729;DHT22;30457;53.590;9.922;2023-05-07T07:39:42;14.30;55.60
44729;DHT22;30457;53.590;9.922;2023-05-07T07:44:08;14.30;55.50
44729;DHT22;30457;53.590;9.922;2023-05-07T07:48:36;14.40;55.30
44729;DHT22;30457;53.590;9.922;2023-05-07T07:53:01;14.50;55.20
44729;DHT22;30457;53.590;9.922;2023-05-07T07:57:28;14.50;55.20
44729;DHT22;30457;53.590;9.922;2023-05-07T08:01:54;14.50;55.20
44729;DHT22;30457;53.590;9.922;2023-05-07T08:06:23;14.60;55.10
44729;DHT22;30457;53.590;9.922;2023-05-07T08:10:49;14.70;55.20
44729;DHT22;30457;53.590;9.922;2023-05-07T08:15:22;14.70;55.10
44729;DHT22;30457;53.590;9.922;2023-05-07T08:19:49;14.80;55.10
44729;DHT22;30457;53.590;9.922;2023-05-07T08:24:15;14.80;54.80
44729;DHT22;30457;53.590;9.922;2023-05-07T08:28:41;14.80;54.60
44729;DHT22;30457;53.590;9.922;2023-05-07T08:33:08;14.90;54.60
44729;DHT22;30457;53.590;9.922;2023-05-07T08:37:35;14.90;54.50
44729;DHT22;30457;53.590;9.922;2023-05-07T08:42:01;14.90;54.50
44729;DHT22;30457;53.590;9.922;2023-05-07T08:46:32;14.90;54.60
44729;DHT22;30457;53.590;9.922;2023-05-07T08:50:58;15.00;54.50
44729;DHT22;30457;53.590;9.922;2023-05-07T08:55:25;15.00;54.40
44729;DHT22;30457;53.590;9.922;2023-05-07T08:59:51;15.00;54.40
44729;DHT22;30457;53.590;9.922;2023-05-07T09:04:17;15.10;54.30
44729;DHT22;30457;53.590;9.922;2023-05-07T09:08:54;15.20;54.20
44729;DHT22;30457;53.590;9.922;2023-05-07T09:13:21;15.20;54.30
44729;DHT22;30457;53.590;9.922;2023-05-07T09:17:47;15.30;54.10
44729;DHT22;30457;53.590;9.922;2023-05-07T09:22:13;15.30;54.00
44729;DHT22;30457;53.590;9.922;2023-05-07T09:26:49;15.30;54.10
44729;DHT22;30457;53.590;9.922;2023-05-07T09:31:16;15.40;54.20
44729;DHT22;30457;53.590;9.922;2023-05-07T09:35:42;15.50;54.00
44729;DHT22;30457;53.590;9.922;2023-05-07T09:40:23;15.60;54.20
44729;DHT22;30457;53.590;9.922;2023-05-07T09:44:50;15.70;53.90
44729;DHT22;30457;53.590;9.922;2023-05-07T09:49:23;15.90;53.30
44729;DHT22;30457;53.590;9.922;2023-05-07T09:53:52;15.90;52.70
44729;DHT22;30457;53.590;9.922;2023-05-07T09:58:18;15.90;52.70
44729;DHT22;30457;53.590;9.922;2023-05-07T10:02:48;16.00;52.80
44729;DHT22;30457;53.590;9.922;2023-05-07T10:07:16;16.10;52.80
44729;DHT22;30457;53.590;9.922;2023-05-07T10:11:43;16.20;52.80
44729;DHT22;30457;53.590;9.922;2023-05-07T10:16:09;16.30;52.40
44729;DHT22;30457;53.590;9.922;2023-05-07T10:20:42;16.30;52.00
44729;DHT22;30457;53.590;9.922;2023-05-07T10:25:26;16.30;51.70
44729;DHT22;30457;53.590;9.922;2023-05-07T10:31:15;16.30;52.10
44729;DHT22;30457;53.590;9.922;2023-05-07T10:35:10;16.40;51.70
44729;DHT22;30457;53.590;9.922;2023-05-07T10:39:39;16.40;51.90
44729;DHT22;30457;53.590;9.922;2023-05-07T10:44:06;16.40;51.80
44729;DHT22;30457;53.590;9.922;2023-05-07T10:48:34;16.50;51.50
44729;DHT22;30457;53.590;9.922;2023-05-07T10:57:52;16.50;51.40
44729;DHT22;30457;53.590;9.922;2023-05-07T11:07:30;16.60;51.20
44729;DHT22;30457;53.590;9.922;2023-05-07T11:12:01;16.60;51.90
44729;DHT22;30457;53.590;9.922;2023-05-07T11:16:40;16.70;51.70
44729;DHT22;30457;53.590;9.922;2023-05-07T11:21:35;16.80;51.10
44729;DHT22;30457;53.590;9.922;2023-05-07T11:26:13;16.90;50.70
44729;DHT22;30457;53.590;9.922;2023-05-07T11:30:42;17.00;50.70
44729;DHT22;30457;53.590;9.922;2023-05-07T11:35:10;17.10;50.70
44729;DHT22;30457;53.590;9.922;2023-05-07T11:39:35;17.10;51.00
44729;DHT22;30457;53.590;9.922;2023-05-07T11:44:01;17.30;50.50
44729;DHT22;30457;53.590;9.922;2023-05-07T11:48:28;17.40;50.60
44729;DHT22;30457;53.590;9.922;2023-05-07T11:52:53;17.60;51.00
44729;DHT22;30457;53.590;9.922;2023-05-07T11:57:19;17.80;50.80
44729;DHT22;30457;53.590;9.922;2023-05-07T12:01:46;18.00;50.10
44729;DHT22;30457;53.590;9.922;2023-05-07T12:06:13;18.20;49.90
44729;DHT22;30457;53.590;9.922;2023-05-07T12:10:43;18.30;48.70
44729;DHT22;30457;53.590;9.922;2023-05-07T12:15:09;18.40;48.90
44729;DHT22;30457;53.590;9.922;2023-05-07T12:19:36;18.50;48.90
44729;DHT22;30457;53.590;9.922;2023-05-07T12:24:02;18.60;48.50
44729;DHT22;30457;53.590;9.922;2023-05-07T12:28:28;18.60;48.40
44729;DHT22;30457;53.590;9.922;2023-05-07T12:32:54;18.70;48.40
44729;DHT22;30457;53.590;9.922;2023-05-07T12:37:24;18.80;48.00
44729;DHT22;30457;53.590;9.922;2023-05-07T12:41:55;18.80;48.10
44729;DHT22;30457;53.590;9.922;2023-05-07T12:46:21;18.90;47.40
44729;DHT22;30457;53.590;9.922;2023-05-07T12:50:49;19.00;48.00
44729;DHT22;30457;53.590;9.922;2023-05-07T12:55:16;19.10;47.80
44729;DHT22;30457;53.590;9.922;2023-05-07T12:59:42;19.10;47.60
44729;DHT22;30457;53.590;9.922;2023-05-07T13:04:07;19.20;47.40
44729;DHT22;30457;53.590;9.922;2023-05-07T13:08:35;19.30;47.40
44729;DHT22;30457;53.590;9.922;2023-05-07T13:13:02;19.40;46.60
44729;DHT22;30457;53.590;9.922;2023-05-07T13:17:28;19.40;46.90
44729;DHT22;30457;53.590;9.922;2023-05-07T13:21:56;19.40;46.90
44729;DHT22;30457;53.590;9.922;2023-05-07T13:26:21;19.50;46.80
44729;DHT22;30457;53.590;9.922;2023-05-07T13:30:47;19.60;46.90
44729;DHT22;30457;53.590;9.922;2023-05-07T13:35:13;19.70;46.50
44729;DHT22;30457;53.590;9.922;2023-05-07T13:39:38;19.80;46.40
44729;DHT22;30457;53.590;9.922;2023-05-07T13:44:04;19.90;46.30
44729;DHT22;30457;53.590;9.922;2023-05-07T13:48:29;20.10;46.10
44729;DHT22;30457;53.590;9.922;2023-05-07T13:52:55;20.20;46.40
44729;DHT22;30457;53.590;9.922;2023-05-07T13:57:21;20.30;46.70
44729;DHT22;30457;53.590;9.922;2023-05-07T14:01:46;20.50;45.80
44729;DHT22;30457;53.590;9.922;2023-05-07T14:06:12;20.70;45.10
44729;DHT22;30457;53.590;9.922;2023-05-07T14:10:38;20.80;45.70
44729;DHT22;30457;53.590;9.922;2023-05-07T14:15:03;20.90;44.70
44729;DHT22;30457;53.590;9.922;2023-05-07T14:19:29;21.10;44.50
44729;DHT22;30457;53.590;9.922;2023-05-07T14:23:55;21.20;44.40
44729;DHT22;30457;53.590;9.922;2023-05-07T14:28:21;21.30;43.60
44729;DHT22;30457;53.590;9.922;2023-05-07T14:32:48;21.40;43.30
44729;DHT22;30457;53.590;9.922;2023-05-07T14:37:14;21.50;43.40
44729;DHT22;30457;53.590;9.922;2023-05-07T14:41:39;21.60;43.00
44729;DHT22;30457;53.590;9.922;2023-05-07T14:46:05;21.70;43.00
44729;DHT22;30457;53.590;9.922;2023-05-07T14:50:30;21.80;43.20
44729;DHT22;30457;53.590;9.922;2023-05-07T14:54:56;22.00;43.30
44729;DHT22;30457;53.590;9.922;2023-05-07T14:59:22;22.20;42.60
44729;DHT22;30457;53.590;9.922;2023-05-07T15:03:47;22.50;42.60
44729;DHT22;30457;53.590;9.922;2023-05-07T15:08:13;22.70;42.50
44729;DHT22;30457;53.590;9.922;2023-05-07T15:12:38;22.90;40.90
44729;DHT22;30457;53.590;9.922;2023-05-07T15:17:04;22.90;40.80
44729;DHT22;30457;53.590;9.922;2023-05-07T15:21:29;22.90;39.80
44729;DHT22;30457;53.590;9.922;2023-05-07T15:25:58;22.70;39.60
44729;DHT22;30457;53.590;9.922;2023-05-07T15:30:23;22.50;39.70
44729;DHT22;30457;53.590;9.922;2023-05-07T15:34:49;22.40;40.00
44729;DHT22;30457;53.590;9.922;2023-05-07T15:39:15;22.20;40.30
44729;DHT22;30457;53.590;9.922;2023-05-07T15:43:48;22.10;40.40
44729;DHT22;30457;53.590;9.922;2023-05-07T15:48:14;22.00;40.00
44729;DHT22;30457;53.590;9.922;2023-05-07T15:52:40;21.80;40.10
44729;DHT22;30457;53.590;9.922;2023-05-07T15:57:06;21.70;40.30
44729;DHT22;30457;53.590;9.922;2023-05-07T16:01:32;21.60;40.10
44729;DHT22;30457;53.590;9.922;2023-05-07T16:05:57;21.60;40.30
44729;DHT22;30457;53.590;9.922;2023-05-07T16:10:25;21.50;40.40
44729;DHT22;30457;53.590;9.922;2023-05-07T16:14:51;21.40;40.70
44729;DHT22;30457;53.590;9.922;2023-05-07T16:19:17;21.30;40.70
44729;DHT22;30457;53.590;9.922;2023-05-07T16:23:43;21.30;40.90
44729;DHT22;30457;53.590;9.922;2023-05-07T16:28:08;21.20;40.70
44729;DHT22;30457;53.590;9.922;2023-05-07T16:32:34;21.10;40.80
44729;DHT22;30457;53.590;9.922;2023-05-07T16:37:02;21.20;40.70
44729;DHT22;30457;53.590;9.922;2023-05-07T16:41:27;21.20;40.80
44729;DHT22;30457;53.590;9.922;2023-05-07T16:45:53;21.20;40.90
44729;DHT22;30457;53.590;9.922;2023-05-07T16:50:18;21.30;41.30
44729;DHT22;30457;53.590;9.922;2023-05-07T16:54:44;21.50;41.60
44729;DHT22;30457;53.590;9.922;2023-05-07T16:59:10;21.80;41.70
44729;DHT22;30457;53.590;9.922;2023-05-07T17:03:35;22.20;41.20
44729;DHT22;30457;53.590;9.922;2023-05-07T17:08:01;22.60;40.90
44729;DHT22;30457;53.590;9.922;2023-05-07T17:12:27;23.00;39.80
44729;DHT22;30457;53.590;9.922;2023-05-07T17:16:53;23.40;39.30
44729;DHT22;30457;53.590;9.922;2023-05-07T17:21:19;23.70;37.50
44729;DHT22;30457;53.590;9.922;2023-05-07T17:25:44;23.70;36.80
44729;DHT22;30457;53.590;9.922;2023-05-07T17:30:10;23.60;36.30
44729;DHT22;30457;53.590;9.922;2023-05-07T17:34:36;23.30;36.00
44729;DHT22;30457;53.590;9.922;2023-05-07T17:39:03;23.00;36.10
44729;DHT22;30457;53.590;9.922;2023-05-07T17:43:28;22.70;36.50
44729;DHT22;30457;53.590;9.922;2023-05-07T17:47:54;22.40;36.60
44729;DHT22;30457;53.590;9.922;2023-05-07T17:52:19;22.10;37.00
44729;DHT22;30457;53.590;9.922;2023-05-07T17:56:45;21.90;37.20
44729;DHT22;30457;53.590;9.922;2023-05-07T18:01:11;21.70;37.90
44729;DHT22;30457;53.590;9.922;2023-05-07T18:05:36;21.50;37.90
44729;DHT22;30457;53.590;9.922;2023-05-07T18:10:02;21.40;38.10
44729;DHT22;30457;53.590;9.922;2023-05-07T18:14:28;21.20;38.50
44729;DHT22;30457;53.590;9.922;2023-05-07T18:18:54;21.10;38.70
44729;DHT22;30457;53.590;9.922;2023-05-07T18:23:19;21.00;38.80
44729;DHT22;30457;53.590;9.922;2023-05-07T18:27:45;20.90;38.80
44729;DHT22;30457;53.590;9.922;2023-05-07T18:32:10;20.80;38.60
44729;DHT22;30457;53.590;9.922;2023-05-07T18:36:36;20.70;38.80
44729;DHT22;30457;53.590;9.922;2023-05-07T18:41:02;20.60;39.00
44729;DHT22;30457;53.590;9.922;2023-05-07T18:45:28;20.40;39.00
44729;DHT22;30457;53.590;9.922;2023-05-07T18:49:54;20.30;39.20
44729;DHT22;30457;53.590;9.922;2023-05-07T18:54:19;20.20;39.30
44729;DHT22;30457;53.590;9.922;2023-05-07T18:58:45;20.10;39.40
44729;DHT22;30457;53.590;9.922;2023-05-07T19:03:10;20.00;39.40
44729;DHT22;30457;53.590;9.922;2023-05-07T19:07:36;19.90;39.60
44729;DHT22;30457;53.590;9.922;2023-05-07T19:12:02;19.70;39.60
44729;DHT22;30457;53.590;9.922;2023-05-07T19:16:28;19.70;39.80
44729;DHT22;30457;53.590;9.922;2023-05-07T19:20:54;19.60;40.00
44729;DHT22;30457;53.590;9.922;2023-05-07T19:25:19;19.50;40.10
44729;DHT22;30457;53.590;9.922;2023-05-07T19:29:45;19.40;40.20
44729;DHT22;30457;53.590;9.922;2023-05-07T19:34:10;19.30;40.30
44729;DHT22;30457;53.590;9.922;2023-05-07T19:38:38;19.20;40.40
44729;DHT22;30457;53.590;9.922;2023-05-07T19:43:03;19.20;40.60
44729;DHT22;30457;53.590;9.922;2023-05-07T19:47:29;19.10;40.70
44729;DHT22;30457;53.590;9.922;2023-05-07T19:51:54;19.00;40.90
44729;DHT22;30457;53.590;9.922;2023-05-07T19:56:21;19.00;41.00
44729;DHT22;30457;53.590;9.922;2023-05-07T20:00:47;18.80;41.10
44729;DHT22;30457;53.590;9.922;2023-05-07T20:05:12;18.80;41.20
44729;DHT22;30457;53.590;9.922;2023-05-07T20:09:38;18.70;41.30
44729;DHT22;30457;53.590;9.922;2023-05-07T20:14:04;18.60;41.40
44729;DHT22;30457;53.590;9.922;2023-05-07T20:18:30;18.60;42.10
44729;DHT22;30457;53.590;9.922;2023-05-07T20:22:55;18.50;41.70
44729;DHT22;30457;53.590;9.922;2023-05-07T20:27:21;18.40;41.70
44729;DHT22;30457;53.590;9.922;2023-05-07T20:31:49;18.40;41.90
44729;DHT22;30457;53.590;9.922;2023-05-07T20:36:15;18.30;42.10
44729;DHT22;30457;53.590;9.922;2023-05-07T20:40:41;18.20;42.20
44729;DHT22;30457;53.590;9.922;2023-05-07T20:45:07;18.10;42.30
44729;DHT22;30457;53.590;9.922;2023-05-07T20:49:32;18.00;42.30
44729;DHT22;30457;53.590;9.922;2023-05-07T20:53:58;18.00;42.50
44729;DHT22;30457;53.590;9.922;2023-05-07T20:58:24;17.90;42.70
44729;DHT22;30457;53.590;9.922;2023-05-07T21:02:51;17.80;42.90
44729;DHT22;30457;53.590;9.922;2023-05-07T21:07:18;17.70;42.90
44729;DHT22;30457;53.590;9.922;2023-05-07T21:11:43;17.60;43.10
44729;DHT22;30457;53.590;9.922;2023-05-07T21:16:09;17.60;43.30
44729;DHT22;30457;53.590;9.922;2023-05-07T21:20:35;17.50;43.40
44729;DHT22;30457;53.590;9.922;2023-05-07T21:25:01;17.40;43.50
44729;DHT22;30457;53.590;9.922;2023-05-07T21:29:27;17.30;43.70
44729;DHT22;30457;53.590;9.922;2023-05-07T21:33:52;17.30;43.90
44729;DHT22;30457;53.590;9.922;2023-05-07T21:38:18;17.20;44.00
44729;DHT22;30457;53.590;9.922;2023-05-07T21:42:43;17.20;44.20
44729;DHT22;30457;53.590;9.922;2023-05-07T21:47:09;17.10;44.30
44729;DHT22;30457;53.590;9.922;2023-05-07T21:51:35;17.10;44.40
44729;DHT22;30457;53.590;9.922;2023-05-07T21:56:01;17.00;45.10
44729;DHT22;30457;53.590;9.922;2023-05-07T22:00:27;17.00;44.60
44729;DHT22;30457;53.590;9.922;2023-05-07T22:04:53;16.90;44.80
44729;DHT22;30457;53.590;9.922;2023-05-07T22:09:19;16.80;44.90
44729;DHT22;30457;53.590;9.922;2023-05-07T22:13:44;16.70;45.00
44729;DHT22;30457;53.590;9.922;2023-05-07T22:18:10;16.70;45.20
44729;DHT22;30457;53.590;9.922;2023-05-07T22:22:49;16.70;45.30
44729;DHT22;30457;53.590;9.922;2023-05-07T22:27:15;16.60;45.50
44729;DHT22;30457;53.590;9.922;2023-05-07T22:31:40;16.60;45.40
44729;DHT22;30457;53.590;9.922;2023-05-07T22:36:06;16.50;45.40
44729;DHT22;30457;53.590;9.922;2023-05-07T22:40:32;16.50;45.60
44729;DHT22;30457;53.590;9.922;2023-05-07T22:44:57;16.50;45.60
44729;DHT22;30457;53.590;9.922;2023-05-07T22:49:23;16.50;45.70
44729;DHT22;30457;53.590;9.922;2023-05-07T22:53:49;16.50;45.70
44729;DHT22;30457;53.590;9.922;2023-05-07T22:58:14;16.40;45.70
44729;DHT22;30457;53.590;9.922;2023-05-07T23:02:40;16.40;45.80
44729;DHT22;30457;53.590;9.922;2023-05-07T23:07:05;16.40;45.90
44729;DHT22;30457;53.590;9.922;2023-05-07T23:11:31;16.30;46.00
44729;DHT22;30457;53.590;9.922;2023-05-07T23:15:56;16.30;46.10
44729;DHT22;30457;53.590;9.922;2023-05-07T23:20:23;16.20;46.10
44729;DHT22;30457;53.590;9.922;2023-05-07T23:24:48;16.20;46.20
44729;DHT22;30457;53.590;9.922;2023-05-07T23:29:14;16.10;46.30
44729;DHT22;30457;53.590;9.922;2023-05-07T23:33:39;16.10;46.30
44729;DHT22;30457;53.590;9.922;2023-05-07T23:38:05;16.00;46.30
44729;DHT22;30457;53.590;9.922;2023-05-07T23:42:31;16.00;46.30
44729;DHT22;30457;53.590;9.922;2023-05-07T23:46:57;15.90;46.40
44729;DHT22;30457;53.590;9.922;2023-05-07T23:51:22;15.90;46.50
44729;DHT22;30457;53.590;9.922;2023-05-07T23:55:48;15.80;46.50
